ADDS METAR Data INFO
IDs: Format: Raw Decoded Include TAF

Data at: 1432 UTC 20 Sep 2017

KGLE 201415Z AUTO 17015KT 10SM SCT019 26/22 A2990 RMK AO2 T02610216
KGLE 201355Z AUTO 17013G17KT 10SM CLR 25/22 A2989 RMK AO2 T02540215
KGLE 201335Z AUTO 16013G16KT 10SM CLR 25/22 A2989 RMK AO2 T02490215
KGLE 201315Z AUTO 16010G14KT 10SM CLR 25/21 A2989 RMK AO2 T02450214
KGLE 201255Z AUTO 16007KT 10SM CLR 24/21 A2989 RMK AO2 T02380212
KGLE 201235Z AUTO 16008KT 10SM CLR 24/21 A2988 RMK AO2 T02370211
KGLE 201215Z AUTO 16007KT 10SM CLR 24/21 A2988 RMK AO2 T02370212
KGLE 201155Z AUTO 16007KT 10SM CLR 24/21 A2988 RMK AO2 70004 T02370213 10255 20228
KGLE 201135Z AUTO 16006KT 10SM CLR 24/21 A2987 RMK AO2 T02350214
KGLE 201115Z AUTO 15006KT 10SM CLR 24/21 A2987 RMK AO2 T02350214
KGLE 201055Z AUTO 15007KT 10SM CLR 23/21 A2986 RMK AO2 T02320213
KGLE 201035Z AUTO 15004KT 10SM CLR 23/21 A2986 RMK AO2 T02300212
KGLE 201015Z AUTO 16004KT 10SM CLR 23/21 A2985 RMK AO2 T02290211
KGLE 200955Z AUTO 16004KT 10SM CLR 23/21 A2985 RMK AO2 T02300211
KGLE 200935Z AUTO 16005KT 10SM CLR 23/21 A2985 RMK AO2 T02310210
KGLE 200915Z AUTO 16004KT 10SM CLR 23/21 A2985 RMK AO2 T02330210
KGLE 200855Z AUTO 15005KT 10SM CLR 24/21 A2985 RMK AO2 T02350210
KGLE 200835Z AUTO 16004KT 10SM CLR 24/21 A2985 RMK AO2 T02390208
KGLE 200815Z AUTO 16007KT 10SM CLR 24/21 A2984 RMK AO2 T02440208
KGLE 200755Z AUTO 15006KT 10SM CLR 25/21 A2984 RMK AO2 T02450207
KGLE 200735Z AUTO 17008KT 10SM CLR 25/21 A2984 RMK AO2 T02500206
KGLE 200715Z AUTO 17007KT 10SM CLR 25/21 A2984 RMK AO2 T02460205
KGLE 200655Z AUTO 17009KT 10SM CLR 25/20 A2984 RMK AO2 T02500204
KGLE 200635Z AUTO 16007KT 10SM CLR 25/20 A2983 RMK AO2 T02520202
KGLE 200615Z AUTO 17010KT 10SM CLR 26/20 A2983 RMK AO2 T02550200
KGLE 200555Z AUTO 19012G16KT 10SM CLR 25/19 A2982 RMK AO2 60004 T02530187 10310 20228 403460213
KGLE 200535Z AUTO 20015G21KT 10SM CLR 25/17 A2981 RMK AO2 T02510166
KGLE 200515Z AUTO 22012G17KT 10SM CLR 24/15 A2982 RMK AO2 T02390153
KGLE 200455Z AUTO 22010KT 10SM CLR 25/16 A2981 RMK AO2 T02480156
KGLE 200435Z AUTO 22011KT 10SM CLR 24/17 A2980 RMK AO2 T02370170
KGLE 200415Z AUTO 22015G19KT 10SM CLR 24/20 A2980 RMK AO2 T02410195
KGLE 200355Z AUTO 20017G21KT 10SM CLR 27/18 A2978 RMK AO2 P0001 T02670184
KGLE 200335Z AUTO 16021G24KT 10SM -RA SCT039 SCT060 SCT090 24/18 A2977 RMK AO2 P0001 T02410179
KGLE 200315Z AUTO 17015G18KT 10SM -RA BKN100 23/19 A2986 RMK AO2 T02290185
KGLE 200255Z AUTO 18017G23KT 10SM RA BKN090 OVC120 23/19 A2987 RMK AO2 P0003 60003 T02330187
KGLE 200235Z AUTO 24009KT 10SM -RA BKN110 24/20 A2990 RMK AO2 P0002 T02360200
KGLE 200215Z AUTO 26015G19KT 10SM -RA SCT075 SCT085 BKN110 24/20 A2991 RMK AO2 T02390195
KGLE 200155Z AUTO 26012G17KT 10SM -RA SCT070 BKN080 BKN120 29/19 A2989 RMK AO2 T02850188
KGLE 200135Z AUTO 20004KT 10SM CLR 29/20 A2985 RMK AO2 T02910200
KGLE 200115Z AUTO 17006KT 10SM CLR 30/20 A2983 RMK AO2 T02960197
KGLE 200055Z AUTO 16006KT 10SM CLR 30/20 A2981 RMK AO2 T02980195
KGLE 200035Z AUTO 15008KT 10SM CLR 30/19 A2980 RMK AO2 T03040192
KGLE 200015Z AUTO 16008KT 10SM CLR 31/20 A2981 RMK AO2 T03060195
KGLE 192355Z AUTO 15008KT 10SM CLR 31/20 A2979 RMK AO2 T03100197 10346 20308
KGLE 192335Z AUTO 15008KT 10SM CLR 32/20 A2978 RMK AO2 T03160197
KGLE 192315Z AUTO 14008KT 10SM CLR 32/20 A2977 RMK AO2 T03210197
KGLE 192255Z AUTO 15008KT 10SM CLR 33/20 A2978 RMK AO2 T03260199
KGLE 192235Z AUTO 14013KT 10SM SCT060 33/20 A2978 RMK AO2 T03290200
KGLE 192215Z AUTO 15016KT 10SM SCT060 34/21 A2978 RMK AO2 T03400205
KGLE 192155Z AUTO 17012G19KT 10SM SCT060 34/19 A2978 RMK AO2 T03420189
KGLE 192135Z AUTO 19017G21KT 10SM SCT060 34/20 A2979 RMK AO2 T03410199
KGLE 192115Z AUTO 17015G21KT 10SM SCT050 34/20 A2980 RMK AO2 T03360203
KGLE 192055Z AUTO 17014G19KT 10SM SCT050 35/21 A2980 RMK AO2 T03450207
KGLE 192035Z AUTO 19012G19KT 10SM SCT050 34/21 A2981 RMK AO2 T03400210
KGLE 192015Z AUTO 17015G19KT 10SM SCT049 34/21 A2982 RMK AO2 T03400213
KGLE 191955Z AUTO 19014G17KT 10SM SCT049 SCT060 34/21 A2984 RMK AO2 T03350212
KGLE 191935Z AUTO 16014G20KT 10SM SCT045 34/22 A2984 RMK AO2 T03370215
KGLE 191915Z AUTO 19012G17KT 150V220 10SM SCT045 34/22 A2986 RMK AO2 T03350218
KGLE 191855Z AUTO 19015G22KT 10SM SCT043 33/22 A2987 RMK AO2 T03310215
KGLE 191835Z AUTO 18018G22KT 10SM SCT041 33/22 A2987 RMK AO2 T03310219
KGLE 191815Z AUTO 18014G19KT 10SM SCT040 33/22 A2989 RMK AO2 T03320222
KGLE 191755Z AUTO 18013G19KT 10SM CLR 31/22 A2990 RMK AO2 T03070217 10315 20225
KGLE 191735Z AUTO 20013G20KT 10SM CLR 31/22 A2991 RMK AO2 T03110218
KGLE 191715Z AUTO 19013G16KT 10SM CLR 31/22 A2991 RMK AO2 T03100219
KGLE 191655Z AUTO 17013G18KT 10SM CLR 30/22 A2992 RMK AO2 T03010220
KGLE 191635Z AUTO 16014G17KT 10SM CLR 30/22 A2993 RMK AO2 T03000223
KGLE 191615Z AUTO 17013KT 10SM CLR 29/22 A2994 RMK AO2 T02920222
KGLE 191555Z AUTO 18014KT 10SM CLR 29/22 A2994 RMK AO2 T02860220
KGLE 191535Z AUTO 20012G17KT 10SM SCT020 28/22 A2994 RMK AO2 T02820222
KGLE 191515Z AUTO 19011KT 10SM CLR 28/22 A2995 RMK AO2 T02770223
KGLE 191455Z AUTO 17013KT 10SM CLR 27/22 A2995 RMK AO2 T02710223
KGLE 191435Z AUTO 19010KT 10SM SCT013 26/23 A2995 RMK AO2 T02630225
KGLE 191415Z AUTO 18010KT 10SM BKN009 BKN015 25/22 A2995 RMK AO2 T02520224
KGLE 191355Z AUTO 19009KT 10SM BKN009 25/23 A2994 RMK AO2 T02470225
KGLE 191335Z AUTO 17009KT 10SM SCT007 24/23 A2993 RMK AO2 T02400225
KGLE 191315Z AUTO 17008KT 10SM CLR 24/22 A2993 RMK AO2 T02350222
KGLE 191255Z AUTO 17007KT 10SM CLR 23/22 A2992 RMK AO2 T02300218
KGLE 191235Z AUTO 17006KT 10SM CLR 23/22 A2992 RMK AO2 T02260216
KGLE 191215Z AUTO 16006KT 10SM CLR 23/22 A2992 RMK AO2 T02250215
KGLE 191155Z AUTO 16006KT 10SM CLR 23/21 A2992 RMK AO2 T02250213 10232 20213
KGLE 191135Z AUTO 17008KT 10SM CLR 23/22 A2992 RMK AO2 T02260215
KGLE 191115Z AUTO 16007KT 10SM CLR 23/21 A2991 RMK AO2 T02250213
KGLE 191055Z AUTO 16006KT 10SM CLR 22/21 A2991 RMK AO2 T02200210
KGLE 191035Z AUTO 15005KT 10SM CLR 22/21 A2992 RMK AO2 T02200208
KGLE 191015Z AUTO 16005KT 10SM CLR 22/21 A2992 RMK AO2 T02190206
KGLE 190955Z AUTO 16004KT 10SM CLR 22/21 A2992 RMK AO2 T02200207
KGLE 190935Z AUTO 16004KT 10SM CLR 22/21 A2991 RMK AO2 T02200206
KGLE 190915Z AUTO 16005KT 10SM CLR 22/21 A2992 RMK AO2 T02180205
KGLE 190855Z AUTO 16004KT 10SM CLR 22/21 A2992 RMK AO2 T02200205
KGLE 190835Z AUTO 14005KT 10SM CLR 22/20 A2992 RMK AO2 T02150202
KGLE 190815Z AUTO 14004KT 10SM CLR 22/20 A2993 RMK AO2 T02150200
KGLE 190755Z AUTO 15003KT 10SM CLR 22/20 A2993 RMK AO2 T02160200
KGLE 190735Z AUTO 16003KT 10SM CLR 22/20 A2992 RMK AO2 T02160196
KGLE 190715Z AUTO 15003KT 10SM CLR 22/20 A2992 RMK AO2 T02220198
KGLE 190655Z AUTO 14003KT 10SM CLR 23/20 A2993 RMK AO2 T02280200
KGLE 190635Z AUTO 12005KT 10SM CLR 23/20 A2993 RMK AO2 T02300198
KGLE 190615Z AUTO 12005KT 10SM CLR 23/20 A2993 RMK AO2 T02300195
KGLE 190555Z AUTO 12004KT 10SM CLR 23/19 A2993 RMK AO2 T02300191 10292 20230 403110180
KGLE 190535Z AUTO 10003KT 10SM CLR 23/19 A2994 RMK AO2 T02310187
KGLE 190515Z AUTO 12005KT 10SM CLR 23/19 A2994 RMK AO2 T02340186
KGLE 190455Z AUTO 15004KT 10SM CLR 24/18 A2995 RMK AO2 T02350182
KGLE 190435Z AUTO 13005KT 10SM CLR 24/18 A2995 RMK AO2 T02400180
KGLE 190415Z AUTO 13005KT 10SM CLR 24/18 A2995 RMK AO2 T02400177
KGLE 190355Z AUTO 12005KT 10SM CLR 24/18 A2995 RMK AO2 T02420175
KGLE 190335Z AUTO 12006KT 10SM CLR 24/18 A2995 RMK AO2 T02410175
KGLE 190315Z AUTO 10004KT 10SM CLR 25/17 A2995 RMK AO2 T02480172
KGLE 190255Z AUTO 09004KT 10SM CLR 25/18 A2994 RMK AO2 T02450175
KGLE 190235Z AUTO 10004KT 10SM CLR 24/18 A2994 RMK AO2 T02430178